createdAt,value
2023-01-17T00:01:34.183Z,95892.44
2023-01-17T00:04:19.353Z,95888.88
2023-01-17T00:07:04.622Z,95896.59
2023-01-17T00:09:50.013Z,95900.88
2023-01-17T00:12:16.662Z,95891.28
2023-01-17T00:14:43.367Z,95903.19
2023-01-17T00:17:10.036Z,95902.41
2023-01-17T00:19:54.891Z,95901.50
2023-01-17T00:22:41.948Z,95910.13
2023-01-17T00:25:31.865Z,95907.44
2023-01-17T00:28:16.423Z,95910.88
2023-01-17T00:30:43.086Z,95906.59
2023-01-17T00:33:09.623Z,95900.47
2023-01-17T00:35:36.238Z,95895.16
2023-01-17T00:38:09.929Z,95892.56
2023-01-17T00:40:39.007Z,95882.31
2023-01-17T00:43:26.032Z,95885.25
2023-01-17T00:46:11.778Z,95881.16
2023-01-17T00:48:57.989Z,95863.59
2023-01-17T00:51:44.419Z,95883.94
2023-01-17T00:54:30.142Z,95870.22
2023-01-17T00:57:15.744Z,95885.41
2023-01-17T01:00:01.203Z,95862.19
2023-01-17T01:02:46.612Z,95873.31
2023-01-17T01:05:32.981Z,95878.34
2023-01-17T01:08:19.328Z,95876.59
2023-01-17T01:11:06.190Z,95874.16
2023-01-17T01:13:52.286Z,95869.81
2023-01-17T01:16:38.281Z,95860.03
2023-01-17T01:19:23.890Z,95852.94
2023-01-17T01:22:09.134Z,95845.69
2023-01-17T01:24:54.416Z,95828.00
2023-01-17T01:27:39.311Z,95831.50
2023-01-17T01:30:25.491Z,95812.34
2023-01-17T01:33:10.697Z,95818.91
2023-01-17T01:35:37.653Z,95819.19
2023-01-17T01:38:04.980Z,95811.69
2023-01-17T01:40:31.729Z,95797.88
2023-01-17T01:43:00.303Z,95784.84
2023-01-17T01:45:32.427Z,95782.25
2023-01-17T01:48:17.659Z,95794.31
2023-01-17T01:50:44.367Z,95797.16
2023-01-17T01:53:11.697Z,95786.97
2023-01-17T01:55:40.948Z,95777.09
2023-01-17T01:58:16.454Z,95776.69
2023-01-17T02:00:43.218Z,95772.69
2023-01-17T02:03:17.020Z,95768.97
2023-01-17T02:05:44.040Z,95778.91
2023-01-17T02:08:13.761Z,95770.22
2023-01-17T02:10:41.945Z,95765.53
2023-01-17T02:13:10.412Z,95764.97
2023-01-17T02:15:55.040Z,95762.19
2023-01-17T02:18:24.646Z,95765.34
2023-01-17T02:21:19.776Z,95773.75
2023-01-17T02:23:46.285Z,95766.81
2023-01-17T02:26:24.895Z,95774.66
2023-01-17T02:29:28.530Z,95769.47
2023-01-17T02:32:01.294Z,95785.63
2023-01-17T02:34:51.344Z,95777.81
2023-01-17T02:37:18.152Z,95777.72
2023-01-17T02:39:56.039Z,95795.97
2023-01-17T02:42:30.277Z,95785.63
2023-01-17T02:44:56.871Z,95779.53
2023-01-17T02:47:26.727Z,95784.03
2023-01-17T02:50:13.869Z,95779.56
2023-01-17T02:53:02.384Z,95782.06
2023-01-17T02:55:37.880Z,95778.63
2023-01-17T02:58:10.293Z,95777.69
2023-01-17T03:00:40.853Z,95789.66
2023-01-17T03:03:13.788Z,95773.81
2023-01-17T03:05:48.588Z,95780.63
2023-01-17T03:08:16.713Z,95780.47
2023-01-17T03:10:44.839Z,95782.81
2023-01-17T03:13:11.472Z,95789.97
2023-01-17T03:15:39.513Z,95784.69
2023-01-17T03:18:11.996Z,95790.81
2023-01-17T03:20:38.686Z,95783.75
2023-01-17T03:23:05.488Z,95793.19
2023-01-17T03:25:32.362Z,95790.59
2023-01-17T03:27:59.165Z,95791.50
2023-01-17T03:30:25.867Z,95780.91
2023-01-17T03:32:52.457Z,95774.75
2023-01-17T03:35:19.141Z,95765.13
2023-01-17T03:37:45.814Z,95773.78
2023-01-17T03:40:15.558Z,95779.22
2023-01-17T03:42:42.851Z,95755.75
2023-01-17T03:45:09.867Z,95784.16
2023-01-17T03:47:36.516Z,95748.97
2023-01-17T03:50:03.924Z,95749.91
2023-01-17T03:52:30.672Z,95779.84
2023-01-17T03:54:57.534Z,95754.91
2023-01-17T03:57:24.213Z,95760.47
2023-01-17T03:59:50.921Z,95785.88
2023-01-17T04:02:17.972Z,95772.81
2023-01-17T04:04:44.607Z,95777.28
2023-01-17T04:07:11.207Z,95774.66
2023-01-17T04:09:38.058Z,95789.44
2023-01-17T04:12:04.917Z,95799.53
2023-01-17T04:14:31.634Z,95794.47
2023-01-17T04:16:58.633Z,95800.66
2023-01-17T04:19:25.546Z,95812.03
2023-01-17T04:21:55.393Z,95819.06
2023-01-17T04:24:23.990Z,95824.16
2023-01-17T04:26:50.647Z,95823.97
2023-01-17T04:29:17.367Z,95832.59
2023-01-17T04:31:44.070Z,95836.16
2023-01-17T04:34:10.819Z,95827.38
2023-01-17T04:36:38.040Z,95828.13
2023-01-17T04:39:04.782Z,95839.25
2023-01-17T04:41:31.583Z,95838.34
2023-01-17T04:43:58.258Z,95843.66
2023-01-17T04:46:25.127Z,95835.13
2023-01-17T04:48:51.766Z,95831.47
2023-01-17T04:51:18.389Z,95836.88
2023-01-17T04:53:45.185Z,95839.66
2023-01-17T04:56:11.874Z,95834.69
2023-01-17T04:58:38.550Z,95834.69
2023-01-17T05:01:07.188Z,95832.13
2023-01-17T05:03:34.759Z,95822.84
2023-01-17T05:06:04.192Z,95828.13
2023-01-17T05:08:30.805Z,95821.16
2023-01-17T05:10:57.719Z,95822.09
2023-01-17T05:13:24.336Z,95822.19
2023-01-17T05:15:51.143Z,95811.09
2023-01-17T05:18:18.773Z,95816.47
2023-01-17T05:20:45.705Z,95813.69
2023-01-17T05:23:12.385Z,95807.44
2023-01-17T05:25:44.292Z,95793.59
2023-01-17T05:28:12.955Z,95784.78
2023-01-17T05:30:39.744Z,95778.22
2023-01-17T05:33:08.029Z,95773.22
2023-01-17T05:35:34.877Z,95787.16
2023-01-17T05:38:02.128Z,95788.84
2023-01-17T05:40:31.078Z,95790.50
2023-01-17T05:42:59.528Z,95797.25
2023-01-17T05:45:28.211Z,95805.75
2023-01-17T05:47:56.276Z,95797.66
2023-01-17T05:50:25.706Z,95798.44
2023-01-17T05:52:55.725Z,95800.66
2023-01-17T05:55:23.824Z,95805.66
2023-01-17T05:57:50.831Z,95799.72
2023-01-17T06:00:18.517Z,95808.16
2023-01-17T06:02:46.275Z,95802.94
2023-01-17T06:05:14.141Z,95800.22
2023-01-17T06:07:43.934Z,95797.56
2023-01-17T06:10:11.096Z,95794.06
2023-01-17T06:12:37.853Z,95802.59
2023-01-17T06:15:04.873Z,95805.94
2023-01-17T06:17:31.429Z,95794.91
2023-01-17T06:19:58.146Z,95792.03
2023-01-17T06:22:24.844Z,95796.41
2023-01-17T06:24:51.500Z,95833.25
2023-01-17T06:27:18.243Z,95808.56
2023-01-17T06:29:45.032Z,95802.22
2023-01-17T06:32:13.360Z,95783.16
2023-01-17T06:34:41.055Z,95806.03
2023-01-17T06:37:07.929Z,95831.75
2023-01-17T06:39:34.632Z,95814.25
2023-01-17T06:42:01.383Z,95799.84
2023-01-17T06:44:28.040Z,95807.38
2023-01-17T06:46:54.713Z,95820.31
2023-01-17T06:49:21.399Z,95815.31
2023-01-17T06:51:48.248Z,95798.09
2023-01-17T06:54:15.168Z,95814.75
2023-01-17T06:56:42.490Z,95807.78
2023-01-17T06:59:09.091Z,95802.25
2023-01-17T07:01:36.689Z,95815.00
2023-01-17T07:04:04.698Z,95797.16
2023-01-17T07:06:31.347Z,95805.19
2023-01-17T07:08:59.627Z,95797.28
2023-01-17T07:11:27.429Z,95792.53
2023-01-17T07:13:54.269Z,95787.41
2023-01-17T07:16:21.098Z,95790.84
2023-01-17T07:18:51.911Z,95798.25
2023-01-17T07:21:18.739Z,95794.34
2023-01-17T07:23:45.611Z,95787.06
2023-01-17T07:26:12.284Z,95796.09
2023-01-17T07:28:39.058Z,95789.69
2023-01-17T07:31:08.087Z,95793.88
2023-01-17T07:33:35.327Z,95791.84
2023-01-17T07:36:07.471Z,95790.34
2023-01-17T07:38:34.938Z,95797.00
2023-01-17T07:41:01.735Z,95792.75
2023-01-17T07:43:28.454Z,95790.63
2023-01-17T07:45:58.221Z,95787.97
2023-01-17T07:48:27.967Z,95787.53
2023-01-17T07:50:56.094Z,95789.56
2023-01-17T07:53:27.770Z,95794.78
2023-01-17T07:55:54.607Z,95799.22
2023-01-17T07:58:21.874Z,95795.16
2023-01-17T08:00:48.598Z,95812.09
2023-01-17T08:03:17.811Z,95811.16
2023-01-17T08:05:53.719Z,95830.91
2023-01-17T08:08:20.317Z,95823.13
2023-01-17T08:10:47.301Z,95828.13
2023-01-17T08:13:13.924Z,95824.50
2023-01-17T08:15:40.616Z,95823.28
2023-01-17T08:18:07.301Z,95820.38
2023-01-17T08:20:33.912Z,95828.94
2023-01-17T08:23:00.493Z,95841.47
2023-01-17T08:25:27.468Z,95837.72
2023-01-17T08:27:58.351Z,95836.06
2023-01-17T08:30:25.974Z,95838.66
2023-01-17T08:32:52.725Z,95849.81
2023-01-17T08:35:20.294Z,95846.69
2023-01-17T08:37:47.890Z,95847.75
2023-01-17T08:40:18.174Z,95858.19
2023-01-17T08:42:44.796Z,95862.34
2023-01-17T08:45:12.839Z,95872.84
2023-01-17T08:47:39.587Z,95878.22
2023-01-17T08:50:07.004Z,95879.16
2023-01-17T08:52:34.751Z,95886.19
2023-01-17T08:55:02.106Z,95891.97
2023-01-17T08:57:31.173Z,95896.22
2023-01-17T08:59:57.842Z,95891.66
2023-01-17T09:02:24.809Z,95894.16
2023-01-17T09:04:51.854Z,95900.78
2023-01-17T09:07:20.346Z,95905.88
2023-01-17T09:09:47.186Z,95905.31
2023-01-17T09:12:13.845Z,95912.22
2023-01-17T09:14:40.438Z,95914.66
2023-01-17T09:17:07.129Z,95925.00
2023-01-17T09:19:35.446Z,95932.00
2023-01-17T09:22:04.660Z,95945.44
2023-01-17T09:24:32.834Z,95949.44
2023-01-17T09:27:00.023Z,95950.53
2023-01-17T09:29:26.652Z,95948.00
2023-01-17T09:31:53.609Z,95938.53
2023-01-17T09:34:20.190Z,95942.66
2023-01-17T09:36:46.973Z,95940.16
2023-01-17T09:39:15.392Z,95933.22
2023-01-17T09:42:01.980Z,95935.63
2023-01-17T09:44:39.126Z,95932.84
2023-01-17T09:47:39.357Z,95922.59
2023-01-17T09:50:37.560Z,95935.97
2023-01-17T09:53:18.602Z,95938.78
2023-01-17T09:55:57.012Z,95944.91
2023-01-17T09:58:48.221Z,95952.13
2023-01-17T10:01:22.813Z,95952.66
2023-01-17T10:03:56.963Z,95958.09
2023-01-17T10:06:42.480Z,95964.53
2023-01-17T10:09:26.410Z,95957.91
2023-01-17T10:12:10.263Z,95963.22
2023-01-17T10:15:07.235Z,95957.13
2023-01-17T10:17:36.439Z,95952.38
2023-01-17T10:20:18.886Z,95948.16
2023-01-17T10:23:07.111Z,95946.59
2023-01-17T10:25:39.409Z,95949.06
2023-01-17T10:28:28.123Z,95942.06
2023-01-17T10:30:59.703Z,95944.31
2023-01-17T10:34:05.699Z,95934.56
2023-01-17T10:36:40.373Z,95926.72
2023-01-17T10:39:20.235Z,95917.59
2023-01-17T10:41:58.080Z,95905.81
2023-01-17T10:44:55.474Z,95903.44
2023-01-17T10:47:28.798Z,95890.66
2023-01-17T10:49:59.569Z,95887.16
2023-01-17T10:52:53.392Z,95897.16
2023-01-17T10:55:23.891Z,95887.13
2023-01-17T10:57:52.670Z,95889.47
2023-01-17T11:00:31.137Z,95895.47
2023-01-17T11:02:58.695Z,95897.13
2023-01-17T11:05:30.887Z,95905.81
2023-01-17T11:07:58.857Z,95909.28
2023-01-17T11:10:48.389Z,95895.72
2023-01-17T11:13:36.973Z,95902.16
2023-01-17T11:16:08.960Z,95903.19
2023-01-17T11:18:39.265Z,95914.63
2023-01-17T11:21:12.337Z,95910.81
2023-01-17T11:23:42.673Z,95913.88
2023-01-17T11:26:21.173Z,95927.78
2023-01-17T11:28:47.971Z,95912.13
2023-01-17T11:31:16.712Z,95911.97
2023-01-17T11:33:54.049Z,95902.81
2023-01-17T11:36:27.515Z,95903.88
2023-01-17T11:39:03.190Z,95905.47
2023-01-17T11:41:40.320Z,95912.41
2023-01-17T11:44:33.499Z,95905.19
2023-01-17T11:47:12.132Z,95894.81
2023-01-17T11:49:49.232Z,95893.63
2023-01-17T11:52:23.404Z,95897.63
2023-01-17T11:54:51.672Z,95897.38
2023-01-17T11:57:18.266Z,95888.38
2023-01-17T11:59:45.917Z,95880.50
2023-01-17T12:02:24.475Z,95884.13
2023-01-17T12:05:01.313Z,95899.09
2023-01-17T12:07:55.969Z,95895.97
2023-01-17T12:10:44.180Z,95907.16
2023-01-17T12:13:36.521Z,95902.19
2023-01-17T12:16:24.478Z,95893.84
2023-01-17T12:18:56.541Z,95880.81
2023-01-17T12:22:02.594Z,95872.09
2023-01-17T12:25:00.048Z,95875.50
2023-01-17T12:27:29.531Z,95878.19
2023-01-17T12:30:30.855Z,95875.00
2023-01-17T12:33:36.775Z,95868.13
2023-01-17T12:36:17.667Z,95876.66
2023-01-17T12:38:50.076Z,95869.84
2023-01-17T12:41:16.679Z,95880.75
2023-01-17T12:43:44.826Z,95874.84
2023-01-17T12:46:34.372Z,95870.44
2023-01-17T12:49:19.537Z,95872.22
2023-01-17T12:51:50.359Z,95863.88
2023-01-17T12:54:29.068Z,95857.00
2023-01-17T12:57:02.847Z,95862.44
2023-01-17T12:59:51.344Z,95856.81
2023-01-17T13:02:46.087Z,95851.00
2023-01-17T13:05:26.111Z,95857.28
2023-01-17T13:08:01.075Z,95856.63
2023-01-17T13:10:35.788Z,95857.38
2023-01-17T13:13:13.456Z,95858.97
2023-01-17T13:15:42.915Z,95857.09
2023-01-17T13:18:15.629Z,95855.59
2023-01-17T13:20:56.260Z,95865.44
2023-01-17T13:23:31.030Z,95874.69
2023-01-17T13:26:00.207Z,95874.34
2023-01-17T13:28:53.544Z,95876.03
2023-01-17T13:31:39.680Z,95868.06
2023-01-17T13:34:32.284Z,95873.31
2023-01-17T13:37:06.931Z,95877.25
2023-01-17T13:40:03.458Z,95883.34
2023-01-17T13:43:02.712Z,95883.81
2023-01-17T13:45:38.203Z,95881.06
2023-01-17T13:48:20.659Z,95886.59
2023-01-17T13:50:57.549Z,95890.72
2023-01-17T13:53:31.551Z,95896.03
2023-01-17T13:56:27.250Z,95901.00
2023-01-17T13:59:10.935Z,95896.84
2023-01-17T14:01:43.691Z,95900.13
2023-01-17T14:04:15.652Z,95903.31
2023-01-17T14:06:52.934Z,95904.59
2023-01-17T14:09:28.163Z,95918.31
2023-01-17T14:11:57.241Z,95906.41
2023-01-17T14:14:43.297Z,95901.75
2023-01-17T14:17:16.449Z,95899.47
2023-01-17T14:19:53.808Z,95895.19
2023-01-17T14:22:20.417Z,95903.72
2023-01-17T14:25:22.445Z,95895.75
2023-01-17T14:27:53.894Z,95908.13
2023-01-17T14:30:32.687Z,95917.25
2023-01-17T14:32:59.368Z,95919.88
2023-01-17T14:35:40.708Z,95921.22
2023-01-17T14:38:19.141Z,95917.22
2023-01-17T14:41:01.721Z,95917.13
2023-01-17T14:43:33.042Z,95925.34
2023-01-17T14:46:03.808Z,95922.38
2023-01-17T14:48:30.973Z,95922.09
2023-01-17T14:51:00.826Z,95922.69
2023-01-17T14:53:29.937Z,95923.34
2023-01-17T14:56:17.233Z,95919.38
2023-01-17T14:58:46.637Z,95928.13
2023-01-17T15:01:19.586Z,95927.59
2023-01-17T15:03:57.121Z,95932.72
2023-01-17T15:06:48.718Z,95934.59
2023-01-17T15:09:25.896Z,95935.91
2023-01-17T15:11:54.487Z,95936.16
2023-01-17T15:14:34.633Z,95941.00
2023-01-17T15:17:24.603Z,95923.28
2023-01-17T15:20:00.029Z,95922.75
2023-01-17T15:22:29.220Z,95922.22
2023-01-17T15:24:56.922Z,95904.28
2023-01-17T15:27:26.316Z,95914.16
2023-01-17T15:29:54.113Z,95928.50
2023-01-17T15:32:27.207Z,95927.03
2023-01-17T15:34:54.280Z,95934.13
2023-01-17T15:37:24.744Z,95934.25
2023-01-17T15:40:23.268Z,95937.88
2023-01-17T15:43:07.014Z,95939.88
2023-01-17T15:45:34.143Z,95935.53
2023-01-17T15:48:51.525Z,95936.72
2023-01-17T15:51:35.187Z,95946.38
2023-01-17T15:54:45.857Z,95945.44
2023-01-17T15:57:40.861Z,95951.69
2023-01-17T16:00:23.209Z,95943.28
2023-01-17T16:02:55.865Z,95933.91
2023-01-17T16:05:23.278Z,95942.09
2023-01-17T16:08:17.205Z,95937.75
2023-01-17T16:10:44.748Z,95929.47
2023-01-17T16:13:13.606Z,95927.72
2023-01-17T16:15:47.065Z,95918.19
2023-01-17T16:18:23.997Z,95921.00
2023-01-17T16:23:52.565Z,95923.63
2023-01-17T16:26:19.312Z,95914.06
2023-01-17T16:28:46.077Z,95917.69
2023-01-17T16:31:12.888Z,95909.09
2023-01-17T16:33:57.396Z,95911.69
2023-01-17T16:36:23.966Z,95908.50
2023-01-17T16:38:51.934Z,95913.69
2023-01-17T16:41:19.661Z,95899.00
2023-01-17T16:43:48.215Z,95900.06
2023-01-17T16:46:15.600Z,95895.81
2023-01-17T16:48:42.290Z,95893.25
2023-01-17T16:51:09.101Z,95893.34
2023-01-17T16:53:37.071Z,95895.25
2023-01-17T16:56:12.123Z,95895.16
2023-01-17T16:58:39.148Z,95892.91
2023-01-17T17:01:17.334Z,95898.22
2023-01-17T17:03:45.246Z,95891.09
2023-01-17T17:06:12.657Z,95889.47
2023-01-17T17:08:39.985Z,95888.63
2023-01-17T17:11:20.006Z,95874.78
2023-01-17T17:13:48.945Z,95869.56
2023-01-17T17:16:20.937Z,95874.59
2023-01-17T17:18:55.134Z,95867.47
2023-01-17T17:21:22.104Z,95862.06
2023-01-17T17:23:54.849Z,95874.38
2023-01-17T17:26:21.438Z,95860.59
2023-01-17T17:28:52.457Z,95855.81
2023-01-17T17:31:19.712Z,95855.19
2023-01-17T17:33:46.625Z,95870.53
2023-01-17T17:36:13.590Z,95863.06
2023-01-17T17:38:53.235Z,95855.44
2023-01-17T17:41:26.815Z,95850.06
2023-01-17T17:43:54.192Z,95835.38
2023-01-17T17:46:22.745Z,95841.19
2023-01-17T17:48:49.798Z,95826.81
2023-01-17T17:51:38.491Z,95837.94
2023-01-17T17:54:10.451Z,95831.13
2023-01-17T17:56:37.999Z,95834.50
2023-01-17T17:59:06.977Z,95825.97
2023-01-17T18:01:33.713Z,95836.47
2023-01-17T18:04:04.195Z,95841.97
2023-01-17T18:06:30.926Z,95842.94
2023-01-17T18:08:57.499Z,95838.75
2023-01-17T18:11:26.207Z,95835.13
2023-01-17T18:13:54.993Z,95823.63
2023-01-17T18:16:30.800Z,95818.34
2023-01-17T18:18:59.036Z,95817.06
2023-01-17T18:21:28.655Z,95811.03
2023-01-17T18:24:00.962Z,95817.13
2023-01-17T18:26:41.790Z,95817.88
2023-01-17T18:29:11.041Z,95824.25
2023-01-17T18:31:37.770Z,95820.09
2023-01-17T18:34:06.898Z,95813.09
2023-01-17T18:36:37.121Z,95814.03
2023-01-17T18:39:18.956Z,95816.72
2023-01-17T18:41:46.154Z,95818.31
2023-01-17T18:44:13.108Z,95811.69
2023-01-17T18:46:42.049Z,95804.22
2023-01-17T18:49:12.419Z,95791.53
2023-01-17T18:51:39.212Z,95781.94
2023-01-17T18:54:07.345Z,95779.13
2023-01-17T18:56:35.137Z,95776.19
2023-01-17T18:59:02.511Z,95784.41
2023-01-17T19:04:38.455Z,95765.59
2023-01-17T19:07:05.180Z,95758.13
2023-01-17T19:09:32.271Z,95741.78
2023-01-17T19:12:00.072Z,95733.50
2023-01-17T19:14:26.895Z,95730.63
2023-01-17T19:16:53.615Z,95720.34
2023-01-17T19:19:20.288Z,95716.03
2023-01-17T19:21:51.563Z,95711.94
2023-01-17T19:24:18.255Z,95716.81
2023-01-17T19:26:45.604Z,95702.94
2023-01-17T19:29:12.356Z,95700.97
2023-01-17T19:31:44.489Z,95705.59
2023-01-17T19:34:14.188Z,95708.50
2023-01-17T19:36:40.825Z,95701.53
2023-01-17T19:39:09.667Z,95696.09
2023-01-17T19:41:46.364Z,95684.56
2023-01-17T19:44:14.109Z,95693.53
2023-01-17T19:46:40.824Z,95691.41
2023-01-17T19:49:09.131Z,95688.56
2023-01-17T19:51:36.547Z,95677.09
2023-01-17T19:54:04.279Z,95675.88
2023-01-17T19:56:31.051Z,95686.88
2023-01-17T19:59:01.156Z,95683.19
2023-01-17T20:01:30.740Z,95684.59
2023-01-17T20:03:58.605Z,95677.38
2023-01-17T20:06:28.996Z,95670.19
2023-01-17T20:08:56.741Z,95657.47
2023-01-17T20:11:24.826Z,95659.00
2023-01-17T20:13:54.338Z,95670.22
2023-01-17T20:16:22.653Z,95663.19
2023-01-17T20:18:49.522Z,95665.09
2023-01-17T20:21:18.627Z,95658.94
2023-01-17T20:23:47.157Z,95650.44
2023-01-17T20:26:21.632Z,95652.09
2023-01-17T20:28:49.019Z,95649.88
2023-01-17T20:31:24.244Z,95655.16
2023-01-17T20:33:53.320Z,95652.78
2023-01-17T20:36:25.639Z,95648.88
2023-01-17T20:38:54.479Z,95644.41
2023-01-17T20:41:28.747Z,95637.72
2023-01-17T20:43:57.635Z,95626.69
2023-01-17T20:46:27.016Z,95637.78
2023-01-17T20:48:57.873Z,95636.59
2023-01-17T20:51:26.781Z,95624.91
2023-01-17T20:53:59.224Z,95621.31
2023-01-17T20:56:26.582Z,95596.59
2023-01-17T20:58:54.313Z,95603.28
2023-01-17T21:01:23.064Z,95591.38
2023-01-17T21:03:54.059Z,95566.56
2023-01-17T21:06:23.639Z,95569.44
2023-01-17T21:08:51.622Z,95568.75
2023-01-17T21:11:30.697Z,95551.56
2023-01-17T21:13:57.614Z,95537.72
2023-01-17T21:16:24.287Z,95528.72
2023-01-17T21:18:52.687Z,95535.63
2023-01-17T21:21:24.303Z,95517.59
2023-01-17T21:23:52.993Z,95496.06
2023-01-17T21:26:21.904Z,95468.47
2023-01-17T21:28:49.991Z,95484.41
2023-01-17T21:31:25.038Z,95514.53
2023-01-17T21:33:55.946Z,95518.00
2023-01-17T21:36:26.191Z,95513.97
2023-01-17T21:38:57.029Z,95515.91
2023-01-17T21:41:27.413Z,95524.47
2023-01-17T21:43:56.113Z,95538.34
2023-01-17T21:46:23.548Z,95542.53
2023-01-17T21:48:50.351Z,95547.50
2023-01-17T21:51:17.508Z,95540.75
2023-01-17T21:53:44.114Z,95543.97
2023-01-17T21:56:31.676Z,95544.88
2023-01-17T21:58:59.097Z,95534.69
2023-01-17T22:01:30.208Z,95535.78
2023-01-17T22:03:59.963Z,95534.69
2023-01-17T22:06:29.495Z,95535.13
2023-01-17T22:08:56.375Z,95531.13
2023-01-17T22:11:25.201Z,95548.53
2023-01-17T22:13:53.030Z,95532.41
2023-01-17T22:16:23.394Z,95525.13
2023-01-17T22:18:50.892Z,95517.34
2023-01-17T22:21:26.336Z,95512.47
2023-01-17T22:23:58.566Z,95496.44
2023-01-17T22:26:28.351Z,95482.41
2023-01-17T22:28:55.461Z,95480.31
2023-01-17T22:31:27.219Z,95478.97
2023-01-17T22:34:04.433Z,95469.81
2023-01-17T22:36:34.835Z,95478.75
2023-01-17T22:39:01.429Z,95458.38
2023-01-17T22:41:34.703Z,95460.31
2023-01-17T22:44:02.497Z,95456.28
2023-01-17T22:46:31.109Z,95455.53
2023-01-17T22:48:57.935Z,95468.25
2023-01-17T22:51:32.669Z,95468.19
2023-01-17T22:54:00.949Z,95469.69
2023-01-17T22:56:32.449Z,95471.94
2023-01-17T22:59:03.322Z,95465.09
2023-01-17T23:01:32.611Z,95456.69
2023-01-17T23:04:02.715Z,95444.63
2023-01-17T23:06:33.761Z,95447.13
2023-01-17T23:09:06.242Z,95456.41
2023-01-17T23:11:47.136Z,95451.44
2023-01-17T23:14:23.567Z,95469.72
2023-01-17T23:17:13.086Z,95464.84
2023-01-17T23:19:54.767Z,95462.41
2023-01-17T23:22:27.785Z,95459.66
2023-01-17T23:24:57.250Z,95456.38
2023-01-17T23:27:44.345Z,95451.75
2023-01-17T23:30:14.582Z,95446.47
2023-01-17T23:32:48.823Z,95450.88
2023-01-17T23:35:17.339Z,95465.00
2023-01-17T23:38:02.545Z,95461.38
2023-01-17T23:40:31.697Z,95469.88
2023-01-17T23:43:16.830Z,95475.38
2023-01-17T23:45:43.467Z,95476.59
2023-01-17T23:48:10.841Z,95468.75
2023-01-17T23:50:44.212Z,95470.81
2023-01-17T23:53:16.138Z,95479.91
2023-01-17T23:55:45.693Z,95484.56
2023-01-17T23:58:12.774Z,95479.31
